Time;durP1;ratioP1;P1;durP2;ratioP2;P2;SDS_P1;SDS_P2;PMS_P1;PMS_P2;Temp;Humidity;BMP_temperature;BMP_pressure;BME280_temperature;BME280_humidity;BME280_pressure;Samples;Min_cycle;Max_cycle;Signal;HPM_P1;HPM_P2
2021/01/17 00:01:24;;;;;;;30.00;12.88;;;;;;;;;;5044057;28;20028;-65
2021/01/17 00:03:49;;;;;;;32.88;11.23;;;;;;;;;;5039097;28;20477;-65
2021/01/17 00:06:14;;;;;;;39.22;16.63;;;;;;;;;;5042596;28;20029;-65
2021/01/17 00:08:39;;;;;;;25.60;11.48;;;;;;;;;;5039282;28;20112;-65
2021/01/17 00:11:05;;;;;;;28.42;12.23;;;;;;;;;;5054399;28;20040;-64
2021/01/17 00:13:30;;;;;;;38.65;20.23;;;;;;;;;;5039540;28;20043;-63
2021/01/17 00:15:55;;;;;;;27.30;11.88;;;;;;;;;;5038655;28;20030;-64
2021/01/17 00:18:20;;;;;;;49.50;20.73;;;;;;;;;;5040754;28;20087;-65
2021/01/17 00:20:45;;;;;;;31.35;12.63;;;;;;;;;;5039454;28;20028;-64
2021/01/17 00:23:10;;;;;;;35.92;12.57;;;;;;;;;;5041978;28;20024;-65
2021/01/17 00:25:36;;;;;;;27.30;11.27;;;;;;;;;;5049810;22;20052;-67
2021/01/17 00:28:01;;;;;;;46.92;21.00;;;;;;;;;;5029534;28;20059;-67
2021/01/17 00:30:28;;;;;;;44.47;13.93;;;;;;;;;;5029681;28;20064;-67
2021/01/17 00:32:56;;;;;;;29.60;11.18;;;;;;;;;;5028236;28;20053;-68
2021/01/17 00:35:22;;;;;;;32.38;13.95;;;;;;;;;;5028681;28;20086;-68
2021/01/17 00:37:50;;;;;;;19.52;7.97;;;;;;;;;;5026765;28;20469;-68
2021/01/17 00:40:15;;;;;;;34.45;14.25;;;;;;;;;;5027201;28;20029;-68
2021/01/17 00:42:44;;;;;;;26.48;11.43;;;;;;;;;;5026961;28;20067;-68
2021/01/17 00:45:10;;;;;;;32.90;13.52;;;;;;;;;;5026962;28;20474;-67
2021/01/17 00:47:35;;;;;;;40.58;16.58;;;;;;;;;;5027554;28;20048;-67
2021/01/17 00:50:00;;;;;;;38.30;13.35;;;;;;;;;;5027747;28;20117;-68
2021/01/17 00:52:26;;;;;;;32.03;11.25;;;;;;;;;;5026931;28;20083;-68
2021/01/17 00:54:51;;;;;;;47.38;18.20;;;;;;;;;;5027019;28;20041;-67
2021/01/17 00:57:16;;;;;;;48.38;17.60;;;;;;;;;;5027065;28;20025;-68
2021/01/17 00:59:41;;;;;;;48.92;17.70;;;;;;;;;;5027492;28;20055;-68
2021/01/17 01:02:06;;;;;;;40.47;12.68;;;;;;;;;;5028653;28;20021;-68
2021/01/17 01:04:32;;;;;;;33.28;14.07;;;;;;;;;;5026772;28;20026;-68
2021/01/17 01:06:57;;;;;;;34.35;14.15;;;;;;;;;;5027597;28;20056;-68
2021/01/17 01:09:23;;;;;;;26.65;8.88;;;;;;;;;;5027106;28;20018;-68
2021/01/17 01:11:48;;;;;;;23.73;9.90;;;;;;;;;;5027159;28;20378;-68
2021/01/17 01:14:13;;;;;;;29.83;11.80;;;;;;;;;;5026859;28;20013;-68
2021/01/17 01:16:39;;;;;;;37.25;15.90;;;;;;;;;;5025508;28;20025;-68
2021/01/17 01:19:04;;;;;;;47.95;17.77;;;;;;;;;;5027796;28;20489;-68
2021/01/17 01:21:30;;;;;;;50.40;18.42;;;;;;;;;;5026902;28;20485;-68
2021/01/17 01:23:56;;;;;;;15.63;7.82;;;;;;;;;;5026787;28;20025;-68
2021/01/17 01:26:21;;;;;;;50.97;19.83;;;;;;;;;;5027362;28;20072;-68
2021/01/17 01:28:47;;;;;;;21.02;8.82;;;;;;;;;;5027382;28;20029;-68
2021/01/17 01:31:19;;;;;;;21.92;9.20;;;;;;;;;;5027484;28;20033;-68
2021/01/17 01:33:45;;;;;;;48.78;19.42;;;;;;;;;;5025243;28;20183;-68
2021/01/17 01:36:16;;;;;;;18.25;8.65;;;;;;;;;;5025714;28;20592;-68
2021/01/17 01:38:42;;;;;;;44.85;16.88;;;;;;;;;;5026123;28;20021;-68
2021/01/17 01:41:07;;;;;;;62.13;21.67;;;;;;;;;;5026661;28;20071;-68
2021/01/17 01:43:32;;;;;;;20.15;9.10;;;;;;;;;;5026677;28;20029;-67
2021/01/17 01:45:58;;;;;;;50.50;18.20;;;;;;;;;;5026651;28;20034;-67
2021/01/17 01:48:23;;;;;;;29.73;10.88;;;;;;;;;;5026657;28;20033;-67
2021/01/17 01:50:48;;;;;;;22.88;8.75;;;;;;;;;;5026601;28;20026;-68
2021/01/17 01:53:14;;;;;;;24.15;12.18;;;;;;;;;;5027039;28;20021;-67
2021/01/17 01:55:45;;;;;;;24.85;9.43;;;;;;;;;;5089826;27;20380;-67
2021/01/17 01:58:11;;;;;;;21.13;9.02;;;;;;;;;;5072539;28;20038;-67
2021/01/17 02:00:36;;;;;;;51.03;20.15;;;;;;;;;;5072888;28;20376;-67
2021/01/17 02:03:02;;;;;;;38.03;12.05;;;;;;;;;;5073177;28;20017;-67
2021/01/17 02:05:27;;;;;;;51.33;18.85;;;;;;;;;;5071724;28;20055;-67
2021/01/17 02:08:15;;;;;;;23.65;10.35;;;;;;;;;;5070638;28;20008;-67
2021/01/17 02:10:41;;;;;;;44.60;16.35;;;;;;;;;;5060764;28;20047;-67
2021/01/17 02:13:12;;;;;;;23.67;9.05;;;;;;;;;;5071393;28;20021;-67
2021/01/17 02:15:39;;;;;;;54.25;18.10;;;;;;;;;;5070579;28;20040;-67
2021/01/17 02:18:05;;;;;;;30.60;10.77;;;;;;;;;;5072328;28;20028;-67
2021/01/17 02:20:32;;;;;;;53.85;21.38;;;;;;;;;;5071807;28;20017;-67
2021/01/17 02:23:00;;;;;;;37.60;13.50;;;;;;;;;;5071189;28;20494;-67
2021/01/17 02:25:26;;;;;;;52.00;18.55;;;;;;;;;;5072110;28;20378;-67
2021/01/17 02:27:51;;;;;;;30.02;10.55;;;;;;;;;;5072628;28;20028;-67
2021/01/17 02:30:17;;;;;;;27.63;11.80;;;;;;;;;;5072282;28;20063;-67
2021/01/17 02:32:47;;;;;;;48.72;18.67;;;;;;;;;;5072651;28;20162;-67
2021/01/17 02:35:13;;;;;;;48.88;18.90;;;;;;;;;;5073003;28;20034;-67
2021/01/17 02:37:57;;;;;;;20.23;8.80;;;;;;;;;;5070316;28;20028;-67
2021/01/17 02:40:34;;;;;;;28.48;11.25;;;;;;;;;;5070788;28;20019;-67
2021/01/17 02:43:01;;;;;;;33.10;16.27;;;;;;;;;;5071082;28;20031;-66
2021/01/17 02:45:26;;;;;;;41.67;14.52;;;;;;;;;;5069792;28;20071;-67
2021/01/17 02:47:51;;;;;;;36.97;13.93;;;;;;;;;;5071286;28;20021;-67
2021/01/17 02:50:16;;;;;;;35.20;13.60;;;;;;;;;;5072565;28;20026;-67
2021/01/17 02:52:46;;;;;;;37.47;14.85;;;;;;;;;;5069087;28;20461;-67
2021/01/17 02:55:11;;;;;;;58.65;22.70;;;;;;;;;;5071748;28;20094;-67
2021/01/17 02:57:37;;;;;;;55.80;20.17;;;;;;;;;;5072740;28;20370;-67
2021/01/17 03:00:07;;;;;;;44.30;15.38;;;;;;;;;;5070184;28;20100;-67
2021/01/17 03:02:33;;;;;;;28.92;13.20;;;;;;;;;;5064123;28;20040;-67
2021/01/17 03:04:59;;;;;;;24.35;10.90;;;;;;;;;;5050837;28;20104;-67
2021/01/17 03:07:26;;;;;;;56.65;18.10;;;;;;;;;;5042479;28;20108;-67
2021/01/17 03:09:51;;;;;;;35.88;14.00;;;;;;;;;;5055986;28;20428;-67
2021/01/17 03:12:17;;;;;;;35.83;15.02;;;;;;;;;;5056510;28;20025;-67
2021/01/17 03:14:43;;;;;;;56.85;19.80;;;;;;;;;;5056245;28;20024;-67
2021/01/17 03:17:08;;;;;;;20.38;7.22;;;;;;;;;;5056319;28;20028;-66
2021/01/17 03:19:33;;;;;;;29.58;13.10;;;;;;;;;;5058473;28;20040;-67
2021/01/17 03:21:59;;;;;;;55.70;19.92;;;;;;;;;;5056112;28;20362;-67
2021/01/17 03:24:24;;;;;;;21.20;8.75;;;;;;;;;;5056309;28;20021;-66
2021/01/17 03:26:49;;;;;;;29.50;11.10;;;;;;;;;;5057091;28;20028;-66
2021/01/17 03:29:15;;;;;;;37.10;12.18;;;;;;;;;;5056812;28;20107;-66
2021/01/17 03:31:40;;;;;;;58.30;22.05;;;;;;;;;;5056544;28;20032;-66
2021/01/17 03:34:05;;;;;;;26.27;10.85;;;;;;;;;;5057079;28;20013;-67
2021/01/17 03:36:30;;;;;;;50.90;18.33;;;;;;;;;;5056082;28;20024;-67
2021/01/17 03:38:56;;;;;;;51.38;20.73;;;;;;;;;;5057761;28;20040;-67
2021/01/17 03:41:22;;;;;;;39.80;15.52;;;;;;;;;;5057555;28;20074;-67
2021/01/17 03:43:47;;;;;;;40.60;15.23;;;;;;;;;;5056281;28;20024;-66
2021/01/17 03:46:13;;;;;;;44.17;17.08;;;;;;;;;;5056001;28;20040;-66
2021/01/17 03:48:38;;;;;;;56.95;23.25;;;;;;;;;;5057443;28;20044;-67
2021/01/17 03:51:03;;;;;;;31.38;13.20;;;;;;;;;;5058418;28;20024;-67
2021/01/17 03:53:28;;;;;;;32.95;12.10;;;;;;;;;;5057106;28;20029;-67
2021/01/17 03:55:53;;;;;;;51.03;17.98;;;;;;;;;;5056341;28;20021;-67
2021/01/17 03:58:19;;;;;;;28.77;12.32;;;;;;;;;;5056705;28;20362;-67
2021/01/17 04:00:44;;;;;;;44.03;15.45;;;;;;;;;;5055855;28;20100;-67
2021/01/17 04:03:09;;;;;;;24.45;9.88;;;;;;;;;;5056848;28;20021;-67
2021/01/17 04:05:34;;;;;;;36.53;14.57;;;;;;;;;;5057284;28;20548;-67
2021/01/17 04:07:59;;;;;;;49.13;18.80;;;;;;;;;;5055675;28;20021;-67
2021/01/17 04:10:24;;;;;;;55.08;20.00;;;;;;;;;;5057386;28;20559;-67
2021/01/17 04:12:50;;;;;;;33.75;11.23;;;;;;;;;;5055928;28;20020;-68
2021/01/17 04:15:15;;;;;;;43.60;16.92;;;;;;;;;;5056824;28;20036;-67
2021/01/17 04:17:40;;;;;;;46.60;17.48;;;;;;;;;;5056689;28;20032;-67
2021/01/17 04:20:05;;;;;;;48.75;17.50;;;;;;;;;;5056543;28;20027;-67
2021/01/17 04:22:35;;;;;;;35.10;13.45;;;;;;;;;;5056215;28;20111;-67
2021/01/17 04:25:00;;;;;;;52.80;20.50;;;;;;;;;;5057769;28;20044;-67
2021/01/17 04:27:26;;;;;;;55.38;22.38;;;;;;;;;;5059315;28;20373;-67
2021/01/17 04:29:52;;;;;;;23.63;8.48;;;;;;;;;;5057245;28;20406;-67
2021/01/17 04:32:17;;;;;;;29.05;10.48;;;;;;;;;;5056577;28;20040;-67
2021/01/17 04:34:42;;;;;;;61.15;22.80;;;;;;;;;;5057492;28;20078;-67
2021/01/17 04:37:07;;;;;;;22.13;7.40;;;;;;;;;;5057524;28;20433;-67
2021/01/17 04:39:32;;;;;;;23.98;9.13;;;;;;;;;;5054296;28;20054;-66
2021/01/17 04:41:58;;;;;;;41.75;13.98;;;;;;;;;;5054862;28;20029;-67
2021/01/17 04:44:31;;;;;;;23.27;9.77;;;;;;;;;;5055048;28;20100;-66
2021/01/17 04:46:57;;;;;;;31.40;11.88;;;;;;;;;;5054909;28;20036;-66
2021/01/17 04:49:23;;;;;;;61.35;21.20;;;;;;;;;;5054286;28;20071;-66
2021/01/17 04:51:49;;;;;;;33.00;13.98;;;;;;;;;;5054993;28;20432;-67
2021/01/17 04:54:15;;;;;;;45.83;13.88;;;;;;;;;;5056947;28;20186;-66
2021/01/17 04:56:50;;;;;;;58.30;22.70;;;;;;;;;;5056110;28;20048;-66
2021/01/17 04:59:24;;;;;;;37.30;13.93;;;;;;;;;;5056697;28;20039;-66
2021/01/17 05:01:51;;;;;;;52.50;18.45;;;;;;;;;;5056242;28;20073;-66
2021/01/17 05:04:22;;;;;;;63.50;24.33;;;;;;;;;;5053815;28;20086;-66
2021/01/17 05:06:48;;;;;;;29.55;12.20;;;;;;;;;;5057001;28;20024;-66
2021/01/17 05:09:19;;;;;;;57.97;21.80;;;;;;;;;;5055077;28;20017;-66
2021/01/17 05:11:46;;;;;;;42.30;15.98;;;;;;;;;;5054973;28;20382;-66
2021/01/17 05:14:14;;;;;;;62.13;24.95;;;;;;;;;;5055587;28;20097;-66
2021/01/17 05:16:43;;;;;;;52.78;19.73;;;;;;;;;;5055411;28;20024;-66
2021/01/17 05:19:12;;;;;;;44.22;18.25;;;;;;;;;;5055119;28;20369;-66
2021/01/17 05:21:38;;;;;;;53.70;19.23;;;;;;;;;;5054829;28;20021;-66
2021/01/17 05:24:08;;;;;;;21.48;8.50;;;;;;;;;;5056667;28;20028;-66
2021/01/17 05:26:33;;;;;;;64.47;23.77;;;;;;;;;;5057041;28;20028;-66
2021/01/17 05:28:58;;;;;;;55.53;19.40;;;;;;;;;;5055004;28;20473;-66
2021/01/17 05:31:25;;;;;;;61.47;24.38;;;;;;;;;;5057574;28;20048;-66
2021/01/17 05:33:50;;;;;;;67.05;25.65;;;;;;;;;;5053295;28;20075;-66
2021/01/17 05:36:16;;;;;;;60.67;22.25;;;;;;;;;;5057079;28;20013;-66
2021/01/17 05:38:41;;;;;;;63.38;24.17;;;;;;;;;;5053740;28;20024;-66
2021/01/17 05:41:22;;;;;;;56.50;21.10;;;;;;;;;;5052672;28;20017;-66
2021/01/17 05:43:47;;;;;;;57.10;21.30;;;;;;;;;;5054654;28;20024;-66
2021/01/17 05:46:12;;;;;;;62.00;23.67;;;;;;;;;;5054861;28;20024;-66
2021/01/17 05:48:38;;;;;;;45.92;18.52;;;;;;;;;;5057215;28;20020;-66
2021/01/17 05:51:03;;;;;;;51.72;17.67;;;;;;;;;;5054270;28;20017;-67
2021/01/17 05:53:28;;;;;;;32.08;11.75;;;;;;;;;;5054921;28;20025;-66
2021/01/17 05:55:53;;;;;;;54.10;19.45;;;;;;;;;;5054264;28;20392;-66
2021/01/17 05:58:31;;;;;;;64.05;23.67;;;;;;;;;;5055716;28;20036;-66
2021/01/17 06:00:56;;;;;;;42.55;17.00;;;;;;;;;;5054564;28;20479;-65
2021/01/17 06:03:27;;;;;;;61.55;23.55;;;;;;;;;;5054722;28;21946;-66
2021/01/17 06:05:58;;;;;;;61.20;22.83;;;;;;;;;;5039612;28;20303;-66
2021/01/17 06:08:24;;;;;;;47.55;18.08;;;;;;;;;;5038450;28;20025;-66
2021/01/17 06:10:50;;;;;;;37.13;14.90;;;;;;;;;;5051691;28;20425;-66
2021/01/17 06:13:22;;;;;;;58.00;22.20;;;;;;;;;;5056176;28;20096;-66
2021/01/17 06:15:47;;;;;;;34.00;13.60;;;;;;;;;;5055655;28;20108;-66
2021/01/17 06:18:19;;;;;;;27.02;12.00;;;;;;;;;;5055665;28;20103;-66
2021/01/17 06:20:45;;;;;;;57.20;21.15;;;;;;;;;;5053525;28;20086;-66
2021/01/17 06:23:11;;;;;;;41.90;14.90;;;;;;;;;;5055944;28;20493;-66
2021/01/17 06:25:36;;;;;;;55.95;18.35;;;;;;;;;;5080984;22;20026;-65
2021/01/17 06:28:08;;;;;;;70.03;25.15;;;;;;;;;;5065355;28;20064;-63
2021/01/17 06:30:33;;;;;;;63.95;24.13;;;;;;;;;;5066517;28;20040;-64
2021/01/17 06:32:58;;;;;;;52.85;20.30;;;;;;;;;;5065608;28;20048;-64
2021/01/17 06:35:33;;;;;;;31.08;13.68;;;;;;;;;;5069422;28;20017;-66
2021/01/17 06:38:17;;;;;;;47.28;17.83;;;;;;;;;;5084883;28;20085;-63
2021/01/17 06:40:47;;;;;;;55.40;22.17;;;;;;;;;;5085591;28;20017;-65
2021/01/17 06:43:13;;;;;;;51.22;19.02;;;;;;;;;;5089136;28;20024;-64
2021/01/17 06:45:42;;;;;;;38.63;13.45;;;;;;;;;;5089994;28;20085;-65
2021/01/17 06:48:08;;;;;;;57.83;23.15;;;;;;;;;;5088931;28;20128;-65
2021/01/17 06:50:33;;;;;;;56.35;19.98;;;;;;;;;;5090087;28;20298;-64
2021/01/17 06:52:58;;;;;;;37.00;13.25;;;;;;;;;;5089887;28;20016;-65
2021/01/17 06:55:24;;;;;;;43.50;16.70;;;;;;;;;;5090250;28;20017;-63
2021/01/17 06:57:51;;;;;;;29.27;11.65;;;;;;;;;;5089913;28;22087;-64
2021/01/17 07:00:16;;;;;;;51.45;17.95;;;;;;;;;;5089418;28;20095;-64
2021/01/17 07:02:49;;;;;;;53.28;20.20;;;;;;;;;;5089597;28;20111;-64
2021/01/17 07:05:33;;;;;;;43.15;16.30;;;;;;;;;;5089511;28;20593;-65
2021/01/17 07:08:16;;;;;;;41.38;14.35;;;;;;;;;;5089233;28;20046;-65
2021/01/17 07:10:42;;;;;;;40.55;15.70;;;;;;;;;;5089225;28;20031;-64
2021/01/17 07:13:08;;;;;;;69.47;24.48;;;;;;;;;;5089385;28;20031;-64
2021/01/17 07:15:35;;;;;;;39.65;15.80;;;;;;;;;;5088364;28;20024;-65
2021/01/17 07:18:03;;;;;;;27.98;13.10;;;;;;;;;;5089271;28;20050;-64
2021/01/17 07:20:30;;;;;;;40.13;15.02;;;;;;;;;;5089807;28;20099;-64
2021/01/17 07:22:59;;;;;;;40.75;16.58;;;;;;;;;;5089121;28;20016;-64
2021/01/17 07:25:25;;;;;;;41.63;13.13;;;;;;;;;;5089489;28;20149;-64
2021/01/17 07:28:00;;;;;;;43.88;14.82;;;;;;;;;;5089897;28;20076;-64
2021/01/17 07:30:44;;;;;;;41.35;16.10;;;;;;;;;;5090213;28;20039;-66
2021/01/17 07:33:09;;;;;;;41.97;14.55;;;;;;;;;;5089367;28;20062;-65
2021/01/17 07:35:37;;;;;;;62.88;21.75;;;;;;;;;;5089762;28;20056;-65
2021/01/17 07:38:08;;;;;;;35.85;11.77;;;;;;;;;;5090167;28;20020;-63
2021/01/17 07:40:53;;;;;;;59.58;24.15;;;;;;;;;;5090283;28;20668;-64
2021/01/17 07:43:19;;;;;;;57.67;17.17;;;;;;;;;;5088804;28;20036;-67
2021/01/17 07:45:44;;;;;;;53.05;20.65;;;;;;;;;;5090670;28;20069;-64
2021/01/17 07:48:10;;;;;;;68.85;23.10;;;;;;;;;;5089144;28;20473;-64
2021/01/17 07:50:39;;;;;;;44.30;14.73;;;;;;;;;;5090139;28;20031;-64
2021/01/17 07:53:08;;;;;;;25.58;10.65;;;;;;;;;;5088597;28;20758;-65
2021/01/17 07:55:33;;;;;;;38.53;13.95;;;;;;;;;;5088941;28;20103;-64
2021/01/17 07:57:59;;;;;;;64.10;22.70;;;;;;;;;;5088491;28;20111;-67
2021/01/17 08:00:24;;;;;;;57.97;23.95;;;;;;;;;;5088645;28;20020;-64
2021/01/17 08:02:50;;;;;;;68.97;25.60;;;;;;;;;;5087511;28;20046;-64
2021/01/17 08:05:15;;;;;;;56.03;19.38;;;;;;;;;;5087972;28;20028;-66
2021/01/17 08:07:40;;;;;;;77.22;29.33;;;;;;;;;;5087816;28;20020;-64
2021/01/17 08:10:06;;;;;;;54.80;21.73;;;;;;;;;;5088748;28;20277;-66
2021/01/17 08:12:35;;;;;;;30.70;11.80;;;;;;;;;;5088501;28;20342;-63
2021/01/17 08:15:22;;;;;;;69.35;26.33;;;;;;;;;;5088400;28;20028;-64
2021/01/17 08:17:47;;;;;;;71.88;25.50;;;;;;;;;;5088972;28;20027;-64
2021/01/17 08:20:39;;;;;;;34.78;13.68;;;;;;;;;;5088421;28;20135;-64
2021/01/17 08:23:05;;;;;;;57.92;21.67;;;;;;;;;;5079347;28;20055;-64
2021/01/17 08:25:47;;;;;;;62.55;22.23;;;;;;;;;;5084201;28;20487;-65
2021/01/17 08:28:32;;;;;;;16.90;9.82;;;;;;;;;;5085218;28;20027;-64
2021/01/17 08:30:57;;;;;;;82.78;31.10;;;;;;;;;;5084813;28;20432;-64
2021/01/17 08:33:25;;;;;;;52.85;20.33;;;;;;;;;;5085331;28;20042;-65
2021/01/17 08:35:51;;;;;;;43.03;16.88;;;;;;;;;;5084178;28;20128;-64
2021/01/17 08:38:18;;;;;;;61.28;21.65;;;;;;;;;;5084580;28;20081;-68
2021/01/17 08:40:45;;;;;;;72.78;27.52;;;;;;;;;;5086072;28;20535;-65
2021/01/17 08:43:15;;;;;;;27.00;9.70;;;;;;;;;;5085165;28;20471;-65
2021/01/17 08:45:41;;;;;;;57.25;20.60;;;;;;;;;;5084659;28;20031;-66
2021/01/17 08:48:15;;;;;;;54.10;21.40;;;;;;;;;;5084120;28;20425;-67
2021/01/17 08:50:40;;;;;;;41.65;18.13;;;;;;;;;;5084635;28;20059;-66
2021/01/17 08:53:06;;;;;;;34.03;12.02;;;;;;;;;;5084528;28;20855;-63
2021/01/17 08:55:45;;;;;;;30.85;10.75;;;;;;;;;;5083817;28;20023;-65
2021/01/17 08:58:14;;;;;;;58.20;20.65;;;;;;;;;;5083927;28;20053;-65
2021/01/17 09:00:48;;;;;;;29.30;12.85;;;;;;;;;;5085196;28;20032;-66
2021/01/17 09:03:23;;;;;;;56.90;18.20;;;;;;;;;;5083248;28;20024;-66
2021/01/17 09:05:49;;;;;;;29.33;11.45;;;;;;;;;;5083316;28;20295;-64
2021/01/17 09:08:15;;;;;;;52.90;19.05;;;;;;;;;;5080692;28;20513;-65
2021/01/17 09:10:40;;;;;;;69.72;25.20;;;;;;;;;;5086367;28;20028;-65
2021/01/17 09:13:05;;;;;;;34.22;12.50;;;;;;;;;;5083863;28;20092;-67
2021/01/17 09:15:33;;;;;;;37.88;13.02;;;;;;;;;;5086426;28;20294;-63
2021/01/17 09:18:00;;;;;;;72.47;24.73;;;;;;;;;;5086423;28;20418;-64
2021/01/17 09:20:26;;;;;;;63.35;19.95;;;;;;;;;;5068486;28;20028;-65
2021/01/17 09:22:53;;;;;;;84.22;27.33;;;;;;;;;;5084853;28;20082;-64
2021/01/17 09:25:18;;;;;;;58.47;22.48;;;;;;;;;;5083846;28;20103;-66
2021/01/17 09:27:44;;;;;;;66.60;25.30;;;;;;;;;;5084494;28;20107;-65
2021/01/17 09:30:10;;;;;;;75.68;24.65;;;;;;;;;;5085093;28;20031;-64
2021/01/17 09:32:36;;;;;;;59.28;22.38;;;;;;;;;;5086251;28;21818;-65
2021/01/17 09:35:05;;;;;;;75.57;25.00;;;;;;;;;;5085426;28;20034;-64
2021/01/17 09:37:32;;;;;;;69.07;23.83;;;;;;;;;;5085426;28;20125;-66
2021/01/17 09:39:58;;;;;;;59.45;21.17;;;;;;;;;;5086310;28;20020;-64
2021/01/17 09:42:24;;;;;;;66.70;23.95;;;;;;;;;;5085837;28;21794;-65
2021/01/17 09:44:51;;;;;;;76.88;28.20;;;;;;;;;;5085147;28;20024;-64
2021/01/17 09:47:18;;;;;;;74.57;27.30;;;;;;;;;;5085918;28;20065;-64
2021/01/17 09:49:44;;;;;;;27.73;11.73;;;;;;;;;;5086385;28;20361;-64
2021/01/17 09:52:10;;;;;;;71.22;26.00;;;;;;;;;;5085301;28;20020;-64
2021/01/17 09:54:36;;;;;;;50.03;18.33;;;;;;;;;;5085218;28;20450;-64
2021/01/17 09:57:11;;;;;;;86.30;31.10;;;;;;;;;;5085552;28;20013;-64
2021/01/17 09:59:36;;;;;;;69.38;21.20;;;;;;;;;;5086177;28;20028;-64
2021/01/17 10:02:02;;;;;;;82.75;30.10;;;;;;;;;;5085879;28;20073;-64
2021/01/17 10:04:28;;;;;;;77.03;26.83;;;;;;;;;;5085762;28;20040;-64
2021/01/17 10:06:54;;;;;;;76.90;27.20;;;;;;;;;;5084420;28;20052;-64
2021/01/17 10:09:23;;;;;;;83.00;29.58;;;;;;;;;;5083958;28;20538;-64
2021/01/17 10:11:55;;;;;;;90.15;29.58;;;;;;;;;;5085636;28;20024;-65
2021/01/17 10:14:22;;;;;;;63.30;24.80;;;;;;;;;;5086073;28;20032;-65
2021/01/17 10:16:51;;;;;;;72.53;26.85;;;;;;;;;;5086896;28;20472;-64
2021/01/17 10:19:21;;;;;;;48.13;17.98;;;;;;;;;;5089086;28;20394;-64
2021/01/17 10:21:46;;;;;;;85.85;31.58;;;;;;;;;;5088901;28;20019;-64
2021/01/17 10:24:18;;;;;;;59.40;21.05;;;;;;;;;;5088669;28;20024;-64
2021/01/17 10:26:44;;;;;;;69.22;26.27;;;;;;;;;;5088734;28;20082;-64
2021/01/17 10:29:09;;;;;;;69.30;21.77;;;;;;;;;;5089078;28;20430;-64
2021/01/17 10:31:35;;;;;;;60.10;21.73;;;;;;;;;;5089281;28;20020;-65
2021/01/17 10:34:01;;;;;;;71.03;26.63;;;;;;;;;;5089259;28;20110;-64
2021/01/17 10:36:26;;;;;;;67.28;25.35;;;;;;;;;;5089466;28;20417;-64
2021/01/17 10:38:52;;;;;;;73.32;23.23;;;;;;;;;;5088563;28;20106;-64
2021/01/17 10:41:27;;;;;;;73.10;25.05;;;;;;;;;;5089926;28;20020;-64
2021/01/17 10:44:12;;;;;;;83.72;29.67;;;;;;;;;;5088206;28;20016;-64
2021/01/17 10:46:42;;;;;;;84.20;29.85;;;;;;;;;;5089878;28;20024;-64
2021/01/17 10:49:15;;;;;;;71.30;26.55;;;;;;;;;;5088746;28;20420;-63
2021/01/17 10:51:42;;;;;;;48.25;16.40;;;;;;;;;;5086290;28;20097;-65
2021/01/17 10:54:09;;;;;;;63.60;24.23;;;;;;;;;;5084016;28;20023;-65
2021/01/17 10:56:35;;;;;;;77.15;27.05;;;;;;;;;;5085654;28;20018;-66
2021/01/17 10:59:07;;;;;;;74.63;27.50;;;;;;;;;;5083318;28;20097;-65
2021/01/17 11:01:35;;;;;;;70.55;27.35;;;;;;;;;;5085714;28;20028;-65
2021/01/17 11:04:00;;;;;;;37.33;13.98;;;;;;;;;;5085434;28;20028;-65
2021/01/17 11:06:29;;;;;;;41.45;17.92;;;;;;;;;;5083990;28;20357;-65
2021/01/17 11:08:58;;;;;;;72.43;26.60;;;;;;;;;;5084544;28;20032;-65
2021/01/17 11:11:24;;;;;;;73.93;28.02;;;;;;;;;;5084498;28;20594;-66
2021/01/17 11:13:56;;;;;;;78.05;26.30;;;;;;;;;;5084269;28;20036;-65
2021/01/17 11:16:32;;;;;;;63.38;24.70;;;;;;;;;;5084732;28;20028;-65
2021/01/17 11:18:57;;;;;;;76.95;25.52;;;;;;;;;;5085345;28;20431;-65
2021/01/17 11:21:23;;;;;;;68.47;24.80;;;;;;;;;;5085071;28;20024;-65
2021/01/17 11:23:51;;;;;;;90.03;28.85;;;;;;;;;;5073906;28;20039;-65
2021/01/17 11:26:20;;;;;;;83.03;31.10;;;;;;;;;;5084129;28;20115;-65
2021/01/17 11:28:49;;;;;;;91.90;34.08;;;;;;;;;;5085060;28;20042;-66
2021/01/17 11:31:15;;;;;;;86.93;32.50;;;;;;;;;;5085269;28;20267;-65
2021/01/17 11:33:41;;;;;;;82.72;28.83;;;;;;;;;;5083843;28;20051;-64
2021/01/17 11:36:06;;;;;;;84.63;28.67;;;;;;;;;;5085826;28;20119;-65
2021/01/17 11:38:50;;;;;;;84.43;28.77;;;;;;;;;;5084087;28;20024;-66
2021/01/17 11:41:16;;;;;;;70.60;26.15;;;;;;;;;;5083767;28;20043;-66
2021/01/17 11:43:42;;;;;;;74.35;28.58;;;;;;;;;;5084196;28;20055;-66
2021/01/17 11:46:08;;;;;;;69.60;25.25;;;;;;;;;;5088345;28;20145;-65
2021/01/17 11:48:33;;;;;;;29.77;12.18;;;;;;;;;;5087797;28;20035;-65
2021/01/17 11:50:59;;;;;;;37.42;16.77;;;;;;;;;;5088463;28;20016;-64
2021/01/17 11:53:27;;;;;;;52.47;20.15;;;;;;;;;;5087464;28;20091;-65
2021/01/17 11:55:53;;;;;;;73.88;22.38;;;;;;;;;;5088833;28;20016;-65
2021/01/17 11:58:19;;;;;;;83.03;29.02;;;;;;;;;;5088227;28;20099;-66
2021/01/17 12:00:52;;;;;;;80.55;26.90;;;;;;;;;;5087108;28;20016;-66
2021/01/17 12:03:36;;;;;;;29.27;10.88;;;;;;;;;;5087792;28;20031;-66
2021/01/17 12:06:04;;;;;;;85.38;27.60;;;;;;;;;;5086882;28;20023;-65
2021/01/17 12:08:47;;;;;;;80.75;28.65;;;;;;;;;;5086914;28;20024;-65
2021/01/17 12:11:25;;;;;;;93.45;32.92;;;;;;;;;;5088995;28;20031;-66
2021/01/17 12:13:53;;;;;;;76.68;26.45;;;;;;;;;;5088794;28;20108;-64
2021/01/17 12:16:35;;;;;;;79.80;29.02;;;;;;;;;;5086405;28;20016;-66
2021/01/17 12:19:01;;;;;;;96.10;33.17;;;;;;;;;;5088817;28;20020;-65
2021/01/17 12:21:27;;;;;;;74.93;26.75;;;;;;;;;;5087768;28;20400;-66
2021/01/17 12:23:52;;;;;;;71.85;23.02;;;;;;;;;;5087400;28;20078;-66
2021/01/17 12:28:46;;;;;;;87.53;31.00;;;;;;;;;;5082297;28;20039;-68
2021/01/17 12:31:12;;;;;;;79.65;26.83;;;;;;;;;;5085864;28;20015;-68
2021/01/17 12:33:37;;;;;;;85.43;28.95;;;;;;;;;;5084645;28;20016;-69
2021/01/17 12:36:07;;;;;;;58.78;19.55;;;;;;;;;;5082783;28;20012;-68
2021/01/17 12:38:32;;;;;;;80.55;32.00;;;;;;;;;;5085186;28;20013;-69
2021/01/17 12:40:57;;;;;;;87.68;30.52;;;;;;;;;;5085015;28;20024;-69
2021/01/17 12:43:22;;;;;;;75.25;28.23;;;;;;;;;;5085783;28;20024;-68
2021/01/17 12:45:47;;;;;;;81.03;28.77;;;;;;;;;;5085224;28;20028;-68
2021/01/17 12:48:13;;;;;;;87.38;28.80;;;;;;;;;;5082717;28;20332;-69
2021/01/17 12:50:38;;;;;;;76.95;26.73;;;;;;;;;;5085833;28;20058;-69
2021/01/17 12:53:03;;;;;;;72.80;23.35;;;;;;;;;;5083176;28;20369;-72
2021/01/17 12:55:28;;;;;;;80.72;28.83;;;;;;;;;;5085049;28;20297;-69
2021/01/17 12:57:53;;;;;;;91.63;29.75;;;;;;;;;;5083698;28;20027;-68
2021/01/17 13:00:18;;;;;;;74.03;27.42;;;;;;;;;;5086029;28;20800;-68
2021/01/17 13:02:44;;;;;;;77.00;27.98;;;;;;;;;;5084162;28;20032;-68
2021/01/17 13:05:09;;;;;;;78.73;29.77;;;;;;;;;;5084084;28;20415;-69
2021/01/17 13:07:34;;;;;;;73.93;27.10;;;;;;;;;;5084156;28;20649;-69
2021/01/17 13:09:59;;;;;;;84.35;28.45;;;;;;;;;;5084358;28;20476;-69
2021/01/17 13:12:24;;;;;;;78.22;28.25;;;;;;;;;;5084963;28;20270;-69
2021/01/17 13:14:49;;;;;;;83.28;30.02;;;;;;;;;;5083376;28;20313;-69
2021/01/17 13:17:15;;;;;;;82.75;29.27;;;;;;;;;;5081774;28;20734;-69
2021/01/17 13:19:40;;;;;;;86.15;28.63;;;;;;;;;;5084027;28;20088;-69
2021/01/17 13:22:05;;;;;;;83.13;30.13;;;;;;;;;;5084533;28;20269;-69
2021/01/17 13:24:30;;;;;;;35.50;14.10;;;;;;;;;;5083868;28;20284;-68
2021/01/17 13:26:55;;;;;;;80.93;27.77;;;;;;;;;;5082727;28;20265;-68
2021/01/17 13:29:20;;;;;;;75.07;27.73;;;;;;;;;;5085271;28;20278;-68
2021/01/17 13:31:46;;;;;;;75.95;25.15;;;;;;;;;;5084213;28;20146;-69
2021/01/17 13:34:11;;;;;;;65.70;21.38;;;;;;;;;;5084592;28;20045;-68
2021/01/17 13:36:36;;;;;;;82.80;31.73;;;;;;;;;;5084845;28;20125;-68
2021/01/17 13:39:01;;;;;;;80.90;26.83;;;;;;;;;;5083107;28;20275;-68
2021/01/17 13:41:26;;;;;;;75.28;26.17;;;;;;;;;;5082179;28;20936;-68
2021/01/17 13:43:51;;;;;;;103.57;33.80;;;;;;;;;;5082862;28;20433;-68
2021/01/17 13:46:18;;;;;;;83.15;32.10;;;;;;;;;;5083547;28;20269;-68
2021/01/17 13:48:43;;;;;;;79.88;28.02;;;;;;;;;;5083318;28;20349;-68
2021/01/17 13:51:08;;;;;;;62.90;23.73;;;;;;;;;;5083564;28;20127;-68
2021/01/17 13:53:33;;;;;;;71.45;22.15;;;;;;;;;;5081421;28;20258;-68
2021/01/17 13:55:58;;;;;;;60.58;21.52;;;;;;;;;;5084416;28;20016;-68
2021/01/17 13:58:24;;;;;;;52.08;15.57;;;;;;;;;;5083237;28;20051;-69
2021/01/17 14:00:49;;;;;;;75.22;25.80;;;;;;;;;;5084046;28;20634;-68
2021/01/17 14:03:14;;;;;;;65.00;22.25;;;;;;;;;;5083550;28;20020;-68
2021/01/17 14:05:39;;;;;;;66.78;22.88;;;;;;;;;;5083944;28;20468;-69
2021/01/17 14:08:04;;;;;;;91.13;33.03;;;;;;;;;;5082761;28;20073;-68
2021/01/17 14:10:30;;;;;;;98.47;31.20;;;;;;;;;;5081184;28;20378;-69
2021/01/17 14:12:55;;;;;;;93.82;31.52;;;;;;;;;;5083191;28;20027;-68
2021/01/17 14:15:21;;;;;;;85.30;27.83;;;;;;;;;;5082308;28;20061;-69
2021/01/17 14:17:47;;;;;;;79.55;29.70;;;;;;;;;;5080673;28;20055;-69
2021/01/17 14:20:13;;;;;;;78.22;27.33;;;;;;;;;;5082795;28;20020;-69
2021/01/17 14:22:38;;;;;;;96.55;31.30;;;;;;;;;;5081212;28;20104;-69